Weather at Cape May County Airport

Public forecast

Using degrees Fahrenheit for public forecast. Weather courtesy of forecast.io.

Current aviation weather report (METAR) for Cape May County Airport

Report is more than 6 hours old.

2022/11/14 14:56 (retrieved 2 years ago)

KWWD 141456Z AUTO 01010KT 10SM SCT038 07/M03 A3038 RMK AO2 SLP290 T00671028 51016

Closest aviation forecast (TAF) to Cape May County Airport

Forecast is more than 12 hours old.

Closest forecast is Millville Municipal Airport, 22.9 nm (42.4 km) NNW.

2023/02/22 18:33 (retrieved 1 year ago)

TAF KMIV 221730Z 2218/2318 10005KT P6SM BKN060 TEMPO 2218/2220 6SM -RA FM230000 09006KT 6SM BR OVC030 FM230500 11005KT 5SM BR BKN010 WS020/24045KT FM231300 29015G25KT P6SM BKN030